Time;durP1;ratioP1;P1;durP2;ratioP2;P2;SDS_P1;SDS_P2;PMS_P1;PMS_P2;Temp;Humidity;BMP_temperature;BMP_pressure;BME280_temperature;BME280_humidity;BME280_pressure;Samples;Min_cycle;Max_cycle;Signal;HPM_P1;HPM_P2
2023/04/19 00:00:43;;;;;;;;;;;;;;;18.66;74.21;100542.97;7397814;19;1524;-52
2023/04/19 00:03:13;;;;;;;;;;;;;;;18.74;74.13;100553.00;7398209;19;1175;-52
2023/04/19 00:05:41;;;;;;;;;;;;;;;18.67;74.33;100542.00;7396919;19;1841;-52
2023/04/19 00:08:09;;;;;;;;;;;;;;;18.72;74.16;100544.25;7397780;19;1576;-54
2023/04/19 00:10:38;;;;;;;;;;;;;;;18.64;74.31;100548.50;7397954;19;1627;-52
2023/04/19 00:13:07;;;;;;;;;;;;;;;18.64;74.33;100552.97;7397453;19;1956;-52
2023/04/19 00:15:38;;;;;;;;;;;;;;;18.61;74.37;100538.03;7397924;19;1261;-52
2023/04/19 00:18:06;;;;;;;;;;;;;;;18.74;73.97;100544.97;7397473;19;1489;-52
2023/04/19 00:20:35;;;;;;;;;;;;;;;18.55;74.15;100535.06;7396110;19;1489;-52
2023/04/19 00:23:03;;;;;;;;;;;;;;;18.44;74.45;100547.59;7397487;19;1611;-52
2023/04/19 00:25:33;;;;;;;;;;;;;;;18.55;73.66;100543.94;7396528;19;1843;-52
2023/04/19 00:28:02;;;;;;;;;;;;;;;18.61;73.24;100530.00;7395984;19;1262;-52
2023/04/19 00:30:30;;;;;;;;;;;;;;;18.58;73.17;100530.28;7397394;19;1603;-52
2023/04/19 00:33:01;;;;;;;;;;;;;;;18.61;72.97;100535.34;7395319;19;1566;-52
2023/04/19 00:35:30;;;;;;;;;;;;;;;18.63;72.76;100546.78;7397571;19;1048;-52
2023/04/19 00:37:58;;;;;;;;;;;;;;;18.57;73.07;100536.63;7397415;19;1940;-52
2023/04/19 00:40:26;;;;;;;;;;;;;;;18.56;72.93;100531.41;7396984;19;1556;-52
2023/04/19 00:42:55;;;;;;;;;;;;;;;18.64;72.59;100527.06;7395656;19;1580;-52
2023/04/19 00:45:23;;;;;;;;;;;;;;;18.56;72.84;100526.91;7395996;19;1855;-52
2023/04/19 00:47:51;;;;;;;;;;;;;;;18.53;72.79;100543.25;7396122;19;1262;-52
2023/04/19 00:50:22;;;;;;;;;;;;;;;18.55;72.52;100549.31;7396350;19;1570;-52
2023/04/19 00:52:51;;;;;;;;;;;;;;;18.56;72.33;100534.06;7396533;19;1517;-52
2023/04/19 00:55:19;;;;;;;;;;;;;;;18.59;72.42;100542.69;7395901;19;1972;-52
2023/04/19 00:57:48;;;;;;;;;;;;;;;18.65;72.45;100538.59;7395957;19;1184;-52
2023/04/19 01:00:16;;;;;;;;;;;;;;;18.48;72.80;100529.41;7395620;19;1168;-53
2023/04/19 01:02:45;;;;;;;;;;;;;;;18.47;73.09;100533.09;7395536;19;1248;-52
2023/04/19 01:05:13;;;;;;;;;;;;;;;18.49;72.96;100528.44;7395496;19;1842;-52
2023/04/19 01:07:44;;;;;;;;;;;;;;;18.48;73.18;100522.25;7396319;19;1659;-53
2023/04/19 01:10:12;;;;;;;;;;;;;;;18.47;73.02;100536.59;7395842;19;1448;-52
2023/04/19 01:12:41;;;;;;;;;;;;;;;18.53;72.75;100518.31;7394789;19;1509;-53
2023/04/19 01:15:10;;;;;;;;;;;;;;;18.42;73.01;100522.78;7396048;19;1224;-52
2023/04/19 01:17:38;;;;;;;;;;;;;;;18.36;73.09;100522.47;7396415;19;1671;-52
2023/04/19 01:20:08;;;;;;;;;;;;;;;18.47;72.79;100527.72;7396051;19;1485;-52
2023/04/19 01:22:39;;;;;;;;;;;;;;;18.53;72.33;100512.94;7395280;19;1247;-52
2023/04/19 01:25:08;;;;;;;;;;;;;;;18.56;72.21;100504.63;7395148;19;1259;-52
2023/04/19 01:27:36;;;;;;;;;;;;;;;18.35;72.71;100515.44;7394102;19;1863;-52
2023/04/19 01:30:05;;;;;;;;;;;;;;;18.49;72.12;100515.03;7396946;19;1172;-52
2023/04/19 01:32:33;;;;;;;;;;;;;;;18.46;72.57;100512.63;7394197;19;1486;-52
2023/04/19 01:35:01;;;;;;;;;;;;;;;18.35;72.51;100515.44;7394884;19;1600;-52
2023/04/19 01:37:29;;;;;;;;;;;;;;;18.33;72.59;100514.75;7394504;19;1612;-52
2023/04/19 01:40:00;;;;;;;;;;;;;;;18.41;72.27;100502.34;7395197;19;1520;-52
2023/04/19 01:42:29;;;;;;;;;;;;;;;18.40;72.69;100503.34;7393832;19;1497;-52
2023/04/19 01:44:57;;;;;;;;;;;;;;;18.34;73.29;100513.75;7397146;19;1552;-52
2023/04/19 01:47:25;;;;;;;;;;;;;;;18.85;72.09;100500.16;7400504;19;1857;-52
2023/04/19 01:49:53;;;;;;;;;;;;;;;19.53;70.21;100503.75;7402444;19;1611;-52
2023/04/19 01:52:22;;;;;;;;;;;;;;;20.14;68.46;100492.50;7402180;19;1466;-52
2023/04/19 01:54:50;;;;;;;;;;;;;;;20.14;68.37;100497.88;7401707;19;1244;-52
2023/04/19 01:57:21;;;;;;;;;;;;;;;20.05;68.81;100491.59;7402013;19;1465;-52
2023/04/19 01:59:49;;;;;;;;;;;;;;;20.02;69.15;100507.13;7402401;19;1536;-52
2023/04/19 02:02:17;;;;;;;;;;;;;;;20.02;69.26;100501.75;7402262;19;1116;-52
2023/04/19 02:04:45;;;;;;;;;;;;;;;20.07;69.14;100502.16;7401276;19;1481;-51
2023/04/19 02:07:14;;;;;;;;;;;;;;;20.13;69.03;100492.66;7400665;19;1851;-52
2023/04/19 02:09:42;;;;;;;;;;;;;;;20.24;68.61;100497.84;7401638;19;1461;-52
2023/04/19 02:12:10;;;;;;;;;;;;;;;20.30;68.48;100491.03;7401157;19;1461;-52
2023/04/19 02:14:41;;;;;;;;;;;;;;;20.43;68.12;100499.53;7401320;19;1501;-51
2023/04/19 02:17:11;;;;;;;;;;;;;;;20.38;68.07;100480.38;7401529;19;1219;-52
2023/04/19 02:19:39;;;;;;;;;;;;;;;20.24;68.62;100479.88;7402103;19;1603;-52
2023/04/19 02:22:07;;;;;;;;;;;;;;;20.29;68.35;100487.47;7402227;19;1114;-51
2023/04/19 02:24:36;;;;;;;;;;;;;;;20.34;68.17;100485.19;7401479;19;1501;-51
2023/04/19 02:27:04;;;;;;;;;;;;;;;20.39;68.07;100485.59;7399352;19;1848;-52
2023/04/19 02:29:33;;;;;;;;;;;;;;;20.40;68.18;100489.13;7401345;19;1592;-51
2023/04/19 02:32:05;;;;;;;;;;;;;;;20.44;68.07;100480.59;7401904;19;1102;-51
2023/04/19 02:34:33;;;;;;;;;;;;;;;20.45;68.19;100463.50;7400060;19;1231;-51
2023/04/19 02:37:02;;;;;;;;;;;;;;;20.51;67.83;100475.44;7401157;19;1493;-51
2023/04/19 02:39:30;;;;;;;;;;;;;;;20.63;67.53;100474.28;7400666;19;1516;-52
2023/04/19 02:41:59;;;;;;;;;;;;;;;20.56;67.70;100483.06;7400276;19;1654;-52
2023/04/19 02:44:28;;;;;;;;;;;;;;;20.45;68.17;100470.69;7399870;19;1477;-51
2023/04/19 02:46:56;;;;;;;;;;;;;;;20.40;68.08;100467.63;7399062;19;1870;-51
2023/04/19 02:49:27;;;;;;;;;;;;;;;20.51;67.94;100464.69;7399974;19;1560;-51
2023/04/19 02:51:55;;;;;;;;;;;;;;;20.64;67.71;100475.13;7400008;19;1204;-52
2023/04/19 02:54:24;;;;;;;;;;;;;;;20.50;67.81;100473.78;7399376;19;1246;-51
2023/04/19 02:56:52;;;;;;;;;;;;;;;20.51;67.80;100456.63;7398475;19;1160;-52
2023/04/19 02:59:20;;;;;;;;;;;;;;;20.58;67.79;100460.41;7399669;19;1580;-51
2023/04/19 03:01:48;;;;;;;;;;;;;;;20.61;67.76;100468.22;7400164;19;1866;-51
2023/04/19 03:04:16;;;;;;;;;;;;;;;20.67;67.65;100461.34;7399555;19;1549;-51
2023/04/19 03:06:47;;;;;;;;;;;;;;;20.69;67.27;100454.03;7399280;19;1847;-51
2023/04/19 03:09:16;;;;;;;;;;;;;;;20.62;67.66;100456.47;7399558;19;1274;-51
2023/04/19 03:11:44;;;;;;;;;;;;;;;20.60;67.90;100460.31;7398823;19;1199;-51
2023/04/19 03:14:12;;;;;;;;;;;;;;;20.53;67.84;100470.78;7400024;19;1556;-51
2023/04/19 03:16:40;;;;;;;;;;;;;;;20.54;68.05;100459.03;7399153;19;1184;-52
2023/04/19 03:19:09;;;;;;;;;;;;;;;20.57;68.09;100469.50;7400683;19;1172;-51
2023/04/19 03:21:37;;;;;;;;;;;;;;;20.58;67.81;100475.69;7398668;19;1841;-51
2023/04/19 03:24:08;;;;;;;;;;;;;;;20.68;67.51;100456.84;7399049;19;1159;-51
2023/04/19 03:26:36;;;;;;;;;;;;;;;20.80;67.24;100459.13;7398061;19;1862;-51
2023/04/19 03:29:05;;;;;;;;;;;;;;;20.81;67.10;100465.34;7399642;19;1568;-51
2023/04/19 03:31:33;;;;;;;;;;;;;;;20.74;67.41;100464.28;7398101;19;1322;-51
2023/04/19 03:34:01;;;;;;;;;;;;;;;20.75;67.59;100460.59;7398891;19;1564;-51
2023/04/19 03:36:29;;;;;;;;;;;;;;;20.82;67.35;100473.25;7396421;19;1549;-51
2023/04/19 03:38:58;;;;;;;;;;;;;;;20.90;67.00;100459.06;7398888;19;1381;-51
2023/04/19 03:41:29;;;;;;;;;;;;;;;20.84;67.11;100465.06;7398313;19;1313;-51
2023/04/19 03:43:57;;;;;;;;;;;;;;;20.75;67.31;100449.84;7398317;19;1568;-51
2023/04/19 03:46:25;;;;;;;;;;;;;;;20.69;67.57;100462.06;7398194;19;1839;-51
2023/04/19 03:48:54;;;;;;;;;;;;;;;20.65;67.72;100466.91;7398732;19;1185;-51
2023/04/19 03:51:22;;;;;;;;;;;;;;;20.63;67.82;100457.28;7398886;19;1976;-51
2023/04/19 03:53:50;;;;;;;;;;;;;;;20.60;67.70;100465.69;7397382;19;1426;-51
2023/04/19 03:56:19;;;;;;;;;;;;;;;20.62;67.59;100461.81;7398115;19;1873;-51
2023/04/19 03:58:52;;;;;;;;;;;;;;;20.77;67.40;100466.66;7398346;19;1607;-52
2023/04/19 04:01:20;;;;;;;;;;;;;;;20.40;68.32;100456.88;7397600;19;1164;-52
2023/04/19 04:03:48;;;;;;;;;;;;;;;20.05;69.27;100463.88;7397666;19;1639;-52
2023/04/19 04:06:16;;;;;;;;;;;;;;;19.90;69.76;100462.69;7398046;19;1865;-52
2023/04/19 04:08:45;;;;;;;;;;;;;;;19.70;70.21;100478.84;7398507;19;1232;-52
2023/04/19 04:11:14;;;;;;;;;;;;;;;19.58;70.65;100471.97;7397566;19;1485;-51
2023/04/19 04:13:42;;;;;;;;;;;;;;;19.43;71.08;100469.75;7397592;19;1309;-52
2023/04/19 04:16:13;;;;;;;;;;;;;;;19.36;71.13;100471.34;7398012;19;1552;-52
2023/04/19 04:18:41;;;;;;;;;;;;;;;19.30;71.11;100474.59;7396994;19;1608;-52
2023/04/19 04:21:09;;;;;;;;;;;;;;;19.41;71.16;100466.38;7397156;19;1557;-52
2023/04/19 04:23:37;;;;;;;;;;;;;;;20.00;69.24;100468.88;7397336;19;1516;-49
2023/04/19 04:26:08;;;;;;;;;;;;;;;19.81;69.67;100469.78;7392253;19;1859;-51
2023/04/19 04:28:37;;;;;;;;;;;;;;;19.70;70.25;100469.97;7393402;19;1849;-51
2023/04/19 04:31:05;;;;;;;;;;;;;;;19.68;70.27;100473.63;7396756;19;1127;-51
2023/04/19 04:33:37;;;;;;;;;;;;;;;19.58;70.19;100471.97;7396334;19;1533;-52
2023/04/19 04:36:06;;;;;;;;;;;;;;;19.42;70.57;100467.22;7396751;19;1282;-51
2023/04/19 04:38:34;;;;;;;;;;;;;;;19.62;70.03;100484.94;7395521;19;1619;-51
2023/04/19 04:41:02;;;;;;;;;;;;;;;19.90;69.67;100462.69;7396693;19;1382;-52
2023/04/19 04:43:31;;;;;;;;;;;;;;;19.68;70.01;100478.16;7396767;19;1109;-52
2023/04/19 04:45:59;;;;;;;;;;;;;;;19.46;71.07;100477.50;7395790;19;1544;-51
2023/04/19 04:48:28;;;;;;;;;;;;;;;19.33;71.46;100470.78;7392512;19;1846;-52
2023/04/19 04:50:59;;;;;;;;;;;;;;;19.05;70.15;100471.50;7394608;19;1608;-52
2023/04/19 04:53:27;;;;;;;;;;;;;;;19.16;71.12;100488.44;7393320;19;1560;-52
2023/04/19 04:55:56;;;;;;;;;;;;;;;19.44;70.69;100484.84;7393626;19;1200;-52
2023/04/19 04:58:24;;;;;;;;;;;;;;;19.66;70.00;100474.78;7395561;19;1604;-51
2023/04/19 05:00:52;;;;;;;;;;;;;;;19.59;70.11;100481.69;7395779;19;1236;-52
2023/04/19 05:03:21;;;;;;;;;;;;;;;19.50;70.41;100474.53;7396939;19;1218;-52
2023/04/19 05:05:49;;;;;;;;;;;;;;;19.54;70.06;100486.69;7395333;19;1978;-52
2023/04/19 05:08:20;;;;;;;;;;;;;;;19.30;70.72;100476.41;7389851;19;1842;-52
2023/04/19 05:10:49;;;;;;;;;;;;;;;19.53;70.29;100467.03;7389846;19;1615;-52
2023/04/19 05:13:17;;;;;;;;;;;;;;;19.83;69.17;100470.47;7393117;19;1254;-51
2023/04/19 05:15:45;;;;;;;;;;;;;;;19.68;69.60;100462.06;7393195;19;1584;-51
2023/04/19 05:18:13;;;;;;;;;;;;;;;19.48;70.43;100483.56;7393256;19;1035;-52
2023/04/19 05:20:42;;;;;;;;;;;;;;;19.45;70.40;100483.00;7396823;19;1794;-52
2023/04/19 05:23:11;;;;;;;;;;;;;;;19.30;70.64;100482.63;7402656;19;1537;-52
2023/04/19 05:25:42;;;;;;;;;;;;;;;19.27;70.97;100485.59;7403897;19;1212;-51
2023/04/19 05:28:10;;;;;;;;;;;;;;;19.55;70.18;100510.66;7400517;19;1853;-52
2023/04/19 05:30:38;;;;;;;;;;;;;;;19.54;70.09;100482.16;7403981;19;1544;-52
2023/04/19 05:33:07;;;;;;;;;;;;;;;19.46;70.26;100485.56;7403042;19;1350;-52
2023/04/19 05:35:35;;;;;;;;;;;;;;;19.46;70.40;100490.09;7404553;19;1148;-51
2023/04/19 05:38:03;;;;;;;;;;;;;;;19.37;70.51;100491.78;7403310;19;1074;-52
2023/04/19 05:40:32;;;;;;;;;;;;;;;19.29;70.66;100488.97;7403024;19;1265;-52
2023/04/19 05:43:02;;;;;;;;;;;;;;;19.70;69.64;100489.59;7399358;19;1274;-51
2023/04/19 05:45:31;;;;;;;;;;;;;;;19.70;69.51;100484.22;7402535;19;1603;-51
2023/04/19 05:47:59;;;;;;;;;;;;;;;19.50;70.00;100478.06;7401339;19;1857;-52
2023/04/19 05:50:27;;;;;;;;;;;;;;;19.44;70.43;100471.44;7402060;19;1545;-52
2023/04/19 05:52:56;;;;;;;;;;;;;;;19.31;70.61;100478.94;7401949;19;1302;-52
2023/04/19 05:55:24;;;;;;;;;;;;;;;19.24;70.86;100470.66;7402255;19;1547;-52
2023/04/19 05:57:52;;;;;;;;;;;;;;;19.44;70.42;100468.75;7401378;19;1211;-51
2023/04/19 06:00:23;;;;;;;;;;;;;;;19.59;69.92;100484.38;7402384;19;1489;-52
2023/04/19 06:02:52;;;;;;;;;;;;;;;19.44;70.29;100481.34;7402430;19;1251;-52
2023/04/19 06:05:20;;;;;;;;;;;;;;;19.45;70.23;100473.13;7402354;19;1540;-52
2023/04/19 06:07:48;;;;;;;;;;;;;;;19.41;70.40;100478.94;7401035;19;1860;-52
2023/04/19 06:10:17;;;;;;;;;;;;;;;19.29;70.59;100472.88;7401339;19;1274;-52
2023/04/19 06:12:45;;;;;;;;;;;;;;;19.66;69.56;100466.72;7400754;19;1203;-52
2023/04/19 06:15:13;;;;;;;;;;;;;;;19.78;69.17;100473.63;7401905;19;1208;-52
2023/04/19 06:17:44;;;;;;;;;;;;;;;19.62;69.66;100478.75;7401332;19;1548;-52
2023/04/19 06:20:13;;;;;;;;;;;;;;;19.44;70.10;100482.19;7401376;19;1556;-52
2023/04/19 06:22:45;;;;;;;;;;;;;;;19.42;70.08;100483.31;7400912;19;1602;-52
2023/04/19 06:25:13;;;;;;;;;;;;;;;19.28;70.67;100481.94;7399760;19;1628;-52
2023/04/19 06:27:42;;;;;;;;;;;;;;;19.56;70.11;100473.97;7396168;19;1922;-51
2023/04/19 06:30:10;;;;;;;;;;;;;;;19.83;69.23;100465.94;7397582;19;1508;-51
2023/04/19 06:32:39;;;;;;;;;;;;;;;19.64;70.35;100493.69;7396684;19;2004;-52
2023/04/19 06:35:10;;;;;;;;;;;;;;;19.43;70.94;100475.09;7397172;19;1224;-57
2023/04/19 06:37:39;;;;;;;;;;;;;;;19.26;71.61;100473.19;7393022;19;2402;-52
2023/04/19 06:40:08;;;;;;;;;;;;;;;19.31;71.54;100470.91;7392946;19;1590;-52
2023/04/19 06:42:36;;;;;;;;;;;;;;;19.38;71.93;100473.88;7396333;19;1521;-51
2023/04/19 06:45:05;;;;;;;;;;;;;;;19.68;70.88;100489.72;7397585;19;2024;-52
2023/04/19 06:47:33;;;;;;;;;;;;;;;19.77;70.50;100471.91;7393506;19;1851;-51
2023/04/19 06:50:02;;;;;;;;;;;;;;;19.57;70.86;100465.75;7398174;19;1529;-50
2023/04/19 06:52:33;;;;;;;;;;;;;;;19.44;71.42;100475.97;7397991;19;1588;-51
2023/04/19 06:55:01;;;;;;;;;;;;;;;19.29;71.93;100483.63;7398249;19;1496;-52
2023/04/19 06:57:29;;;;;;;;;;;;;;;19.29;71.81;100478.25;7399022;19;1505;-51
2023/04/19 06:59:58;;;;;;;;;;;;;;;19.67;70.82;100473.75;7398353;19;1643;-51
2023/04/19 07:02:26;;;;;;;;;;;;;;;19.92;69.87;100483.03;7399475;19;1254;-51
2023/04/19 07:04:54;;;;;;;;;;;;;;;19.73;70.30;100475.88;7397575;19;1449;-51
2023/04/19 07:07:22;;;;;;;;;;;;;;;19.63;70.67;100475.88;7398129;19;1839;-51
2023/04/19 07:09:53;;;;;;;;;;;;;;;19.54;70.81;100470.59;7397765;19;1572;-51
2023/04/19 07:12:21;;;;;;;;;;;;;;;19.37;71.23;100482.91;7397063;19;1639;-51
2023/04/19 07:14:55;;;;;;;;;;;;;;;19.31;70.57;100480.78;7396346;19;1493;-50
2023/04/19 07:17:23;;;;;;;;;;;;;;;19.67;69.60;100488.00;7395888;19;1255;-51
2023/04/19 07:19:51;;;;;;;;;;;;;;;19.74;69.19;100480.28;7393072;19;1485;-50
2023/04/19 07:22:21;;;;;;;;;;;;;;;19.03;69.87;100424.41;7395298;19;1338;-51
2023/04/19 07:24:50;;;;;;;;;;;;;;;19.42;70.59;100481.47;7396687;19;1159;-51
2023/04/19 07:27:22;;;;;;;;;;;;;;;19.19;70.95;100493.50;7393797;19;1881;-50
2023/04/19 07:29:50;;;;;;;;;;;;;;;19.13;71.47;100480.69;7395661;19;1266;-51
2023/04/19 07:32:18;;;;;;;;;;;;;;;19.36;70.92;100487.41;7397414;19;1211;-50
2023/04/19 07:34:47;;;;;;;;;;;;;;;19.75;69.58;100483.78;7395446;19;1484;-50
2023/04/19 07:37:15;;;;;;;;;;;;;;;19.65;69.93;100486.47;7395574;19;1251;-51
2023/04/19 07:39:43;;;;;;;;;;;;;;;19.48;70.49;100494.31;7395123;19;1849;-50
2023/04/19 07:42:11;;;;;;;;;;;;;;;19.39;70.62;100488.97;7395787;19;1536;-51
2023/04/19 07:44:42;;;;;;;;;;;;;;;19.38;70.60;100488.13;7395110;19;1615;-50
2023/04/19 07:47:10;;;;;;;;;;;;;;;19.38;70.67;100498.84;7395373;19;1545;-51
2023/04/19 07:49:39;;;;;;;;;;;;;;;19.55;70.37;100493.72;7393689;19;1851;-50
2023/04/19 07:52:08;;;;;;;;;;;;;;;19.81;69.32;100489.41;7396661;19;1545;-50
2023/04/19 07:54:38;;;;;;;;;;;;;;;19.61;69.92;100501.19;7395118;19;1553;-51
2023/04/19 07:57:06;;;;;;;;;;;;;;;19.50;70.24;100504.88;7395900;19;1643;-50
2023/04/19 07:59:34;;;;;;;;;;;;;;;19.44;70.40;100490.22;7396359;19;1207;-50
2023/04/19 08:02:06;;;;;;;;;;;;;;;19.35;70.57;100492.91;7395612;19;1485;-50
2023/04/19 08:04:35;;;;;;;;;;;;;;;19.39;70.62;100497.00;7395687;19;1599;-51
2023/04/19 08:07:04;;;;;;;;;;;;;;;19.71;69.80;100491.28;7395954;19;1497;-50
2023/04/19 08:09:32;;;;;;;;;;;;;;;19.83;69.42;100500.84;7393798;19;1862;-50
2023/04/19 08:12:00;;;;;;;;;;;;;;;19.58;70.01;100482.72;7395210;19;1263;-51
2023/04/19 08:14:29;;;;;;;;;;;;;;;19.40;70.67;100485.31;7394697;19;1619;-51
2023/04/19 08:16:57;;;;;;;;;;;;;;;19.35;70.85;100485.72;7396363;19;1035;-50
2023/04/19 08:19:28;;;;;;;;;;;;;;;19.29;70.95;100494.34;7394440;19;1561;-50
2023/04/19 08:21:56;;;;;;;;;;;;;;;19.44;70.51;100498.25;7393167;19;1497;-51
2023/04/19 08:24:25;;;;;;;;;;;;;;;19.78;69.56;100488.88;7394218;19;1548;-49
2023/04/19 08:26:55;;;;;;;;;;;;;;;19.73;69.55;100473.19;7393393;19;1294;-48
2023/04/19 08:29:23;;;;;;;;;;;;;;;19.54;70.13;100484.00;7392443;19;1863;-50
2023/04/19 08:31:51;;;;;;;;;;;;;;;19.42;70.67;100473.44;7394572;19;1551;-50
2023/04/19 08:34:23;;;;;;;;;;;;;;;19.42;70.61;100473.44;7329063;19;12457;-51
2023/04/19 08:36:54;;;;;;;;;;;;;;;19.24;71.18;100483.22;7394576;19;1570;-51
2023/04/19 08:39:22;;;;;;;;;;;;;;;19.82;69.48;100476.84;7393379;19;1494;-50
2023/04/19 08:41:51;;;;;;;;;;;;;;;19.89;69.12;100490.53;7395095;19;1633;-49
2023/04/19 08:44:20;;;;;;;;;;;;;;;19.71;69.34;100472.50;7393842;19;1245;-50
2023/04/19 08:46:49;;;;;;;;;;;;;;;19.54;70.24;100474.09;7395140;19;1543;-49
2023/04/19 08:49:18;;;;;;;;;;;;;;;19.50;70.30;100479.88;7393373;19;1847;-50
2023/04/19 08:51:48;;;;;;;;;;;;;;;19.44;70.39;100481.34;7395359;19;1067;-51
2023/04/19 08:54:20;;;;;;;;;;;;;;;19.43;70.70;100480.47;7392020;19;1824;-50
2023/04/19 08:56:48;;;;;;;;;;;;;;;19.96;68.72;100472.84;7394215;19;1222;-50
2023/04/19 08:59:16;;;;;;;;;;;;;;;19.93;68.92;100481.19;7394384;19;1198;-50
2023/04/19 09:01:44;;;;;;;;;;;;;;;19.75;69.74;100479.25;7392881;19;1202;-50
2023/04/19 09:04:13;;;;;;;;;;;;;;;19.57;70.06;100475.63;7394034;19;1573;-51
2023/04/19 09:06:41;;;;;;;;;;;;;;;19.43;70.36;100479.63;7393538;19;1359;-51
2023/04/19 09:09:19;;;;;;;;;;;;;;;19.34;70.80;100478.69;7392053;19;1860;-50
2023/04/19 09:11:47;;;;;;;;;;;;;;;19.43;70.27;100480.47;7393513;19;1156;-49
2023/04/19 09:14:17;;;;;;;;;;;;;;;19.36;69.38;100395.38;7394343;19;1163;-50
2023/04/19 09:16:45;;;;;;;;;;;;;;;19.90;69.36;100484.16;7392078;19;2025;-53
2023/04/19 09:19:15;;;;;;;;;;;;;;;19.74;69.56;100482.97;7393277;19;1547;-49
2023/04/19 09:21:43;;;;;;;;;;;;;;;19.63;70.24;100491.16;7392991;19;1550;-51
2023/04/19 09:24:12;;;;;;;;;;;;;;;19.54;70.74;100486.69;7393636;19;1108;-51
2023/04/19 09:26:56;;;;;;;;;;;;;;;19.44;70.97;100484.84;7392045;19;1695;-53
2023/04/19 09:29:25;;;;;;;;;;;;;;;19.32;70.46;100486.03;7389274;19;1849;-55
2023/04/19 09:32:00;;;;;;;;;;;;;;;19.62;70.79;100484.09;7391240;19;1202;-56
2023/04/19 09:34:29;;;;;;;;;;;;;;;20.11;69.35;100486.59;7392306;19;1479;-56
2023/04/19 09:36:58;;;;;;;;;;;;;;;20.00;69.64;100487.66;7392464;19;1822;-56
2023/04/19 09:39:34;;;;;;;;;;;;;;;19.80;70.40;100490.41;7391303;19;1393;-55
2023/04/19 09:42:05;;;;;;;;;;;;;;;19.70;70.90;100475.34;7391959;19;1135;-55
2023/04/19 09:44:34;;;;;;;;;;;;;;;19.64;71.10;100493.69;7391097;19;1546;-56
2023/04/19 09:47:02;;;;;;;;;;;;;;;19.53;71.47;100474.25;7390806;19;1400;-54
2023/04/19 09:49:30;;;;;;;;;;;;;;;18.86;71.58;100391.16;7391141;19;1845;-56
2023/04/19 09:51:59;;;;;;;;;;;;;;;19.33;72.00;100484.19;7392452;19;1558;-55
2023/04/19 09:54:31;;;;;;;;;;;;;;;19.63;71.03;100480.41;7392161;19;1653;-56
2023/04/19 09:56:59;;;;;;;;;;;;;;;19.92;70.28;100466.09;7390686;19;1447;-53
2023/04/19 09:59:31;;;;;;;;;;;;;;;19.74;70.69;100480.28;7389316;19;1253;-50
2023/04/19 10:02:01;;;;;;;;;;;;;;;19.56;71.10;100479.34;7391364;19;1142;-50
2023/04/19 10:04:29;;;;;;;;;;;;;;;19.45;71.26;100464.25;7379190;19;1150;-50
2023/04/19 10:06:57;;;;;;;;;;;;;;;19.41;71.34;100469.03;7397923;19;1162;-51
2023/04/19 10:09:26;;;;;;;;;;;;;;;19.36;71.80;100474.00;7398964;19;1859;-51
2023/04/19 10:11:55;;;;;;;;;;;;;;;19.52;71.37;100469.84;7399588;19;1162;-50
2023/04/19 10:14:24;;;;;;;;;;;;;;;19.81;70.25;100469.78;7399147;19;1253;-50
2023/04/19 10:16:58;;;;;;;;;;;;;;;19.75;70.58;100467.69;7398781;19;1233;-50
2023/04/19 10:19:26;;;;;;;;;;;;;;;19.54;71.27;100475.94;7399334;19;1138;-51
2023/04/19 10:21:55;;;;;;;;;;;;;;;19.42;71.69;100483.31;7398925;19;1178;-51
2023/04/19 10:24:23;;;;;;;;;;;;;;;19.31;71.99;100475.44;7399147;19;1288;-51
2023/04/19 10:27:06;;;;;;;;;;;;;;;19.29;71.89;100472.88;7397698;19;1170;-51
2023/04/19 10:29:50;;;;;;;;;;;;;;;19.55;71.21;100450.81;7397561;19;1854;-51
2023/04/19 10:32:21;;;;;;;;;;;;;;;19.77;70.29;100460.34;7399415;19;1230;-51
2023/04/19 10:34:49;;;;;;;;;;;;;;;19.57;71.04;100465.75;7398650;19;1214;-51
2023/04/19 10:37:17;;;;;;;;;;;;;;;19.45;71.50;100467.75;7398547;19;1197;-51
2023/04/19 10:39:46;;;;;;;;;;;;;;;19.35;72.04;100461.59;7398734;19;1329;-51
2023/04/19 10:42:14;;;;;;;;;;;;;;;19.27;72.09;100469.50;7398685;19;1138;-51
2023/04/19 10:44:43;;;;;;;;;;;;;;;19.40;71.64;100463.84;7397813;19;1144;-51
2023/04/19 10:47:11;;;;;;;;;;;;;;;19.78;70.66;100457.53;7396040;19;1135;-51
2023/04/19 10:49:48;;;;;;;;;;;;;;;19.71;70.52;100469.81;7395055;19;1846;-51
2023/04/19 10:52:28;;;;;;;;;;;;;;;19.54;71.10;100467.91;7391467;19;1278;-51
2023/04/19 10:54:57;;;;;;;;;;;;;;;19.39;71.57;100462.97;7398630;19;1132;-52
2023/04/19 10:57:26;;;;;;;;;;;;;;;19.36;71.67;100465.97;7398683;19;1199;-51
2023/04/19 11:00:09;;;;;;;;;;;;;;;19.32;71.90;100461.91;7397838;19;1225;-51
2023/04/19 11:02:38;;;;;;;;;;;;;;;19.47;71.43;100449.69;7397013;19;1250;-52
2023/04/19 11:05:10;;;;;;;;;;;;;;;19.76;70.51;100454.16;7397393;19;1292;-51
2023/04/19 11:07:42;;;;;;;;;;;;;;;19.66;70.61;100464.88;7398243;19;1225;-52
2023/04/19 11:10:11;;;;;;;;;;;;;;;19.52;71.15;100461.81;7396711;19;1849;-52
2023/04/19 11:12:43;;;;;;;;;;;;;;;19.39;71.38;100438.00;7396049;19;1467;-52
2023/04/19 11:15:11;;;;;;;;;;;;;;;19.33;71.43;100455.53;7397860;19;1213;-52
2023/04/19 11:17:41;;;;;;;;;;;;;;;19.28;71.87;100455.13;7395952;19;1275;-52
2023/04/19 11:20:13;;;;;;;;;;;;;;;19.58;70.85;100463.94;7394938;19;1232;-53
2023/04/19 11:22:42;;;;;;;;;;;;;;;19.77;70.31;100445.09;7397398;19;1239;-53
2023/04/19 11:25:11;;;;;;;;;;;;;;;19.63;70.59;100446.38;7396761;19;1236;-53
2023/04/19 11:27:40;;;;;;;;;;;;;;;19.42;71.33;100457.34;7395913;19;1346;-54
2023/04/19 11:30:10;;;;;;;;;;;;;;;19.25;71.79;100439.31;7396285;19;1851;-54
2023/04/19 11:32:38;;;;;;;;;;;;;;;19.12;71.99;100449.50;7396814;19;1182;-54
2023/04/19 11:35:08;;;;;;;;;;;;;;;19.28;71.80;100447.94;7397142;19;1265;-54
2023/04/19 11:37:40;;;;;;;;;;;;;;;19.74;70.29;100434.66;7396198;19;1840;-54
2023/04/19 11:40:09;;;;;;;;;;;;;;;19.72;70.09;100433.13;7397067;19;1318;-54
2023/04/19 11:42:38;;;;;;;;;;;;;;;19.57;70.70;100433.56;7397221;19;1217;-54
2023/04/19 11:45:07;;;;;;;;;;;;;;;19.38;71.38;100422.94;7396907;19;1225;-55
2023/04/19 11:47:35;;;;;;;;;;;;;;;19.26;71.72;100430.31;7396739;19;1202;-54
2023/04/19 11:50:18;;;;;;;;;;;;;;;19.23;72.08;100431.41;7393850;19;1869;-54
2023/04/19 11:52:53;;;;;;;;;;;;;;;19.52;70.87;100408.16;7394566;19;1209;-54
2023/04/19 11:55:21;;;;;;;;;;;;;;;19.85;69.97;100409.47;7395757;19;1147;-54
2023/04/19 11:57:50;;;;;;;;;;;;;;;19.75;70.11;100403.31;7395927;19;1132;-54
2023/04/19 12:00:28;;;;;;;;;;;;;;;19.57;70.53;100408.59;7396064;19;1202;-54
2023/04/19 12:02:57;;;;;;;;;;;;;;;19.35;71.24;100401.75;7396804;19;1238;-54
2023/04/19 12:05:25;;;;;;;;;;;;;;;19.22;71.73;100402.94;7395993;19;1288;-52
2023/04/19 12:08:07;;;;;;;;;;;;;;;19.22;71.80;100399.41;7396985;19;1182;-52
2023/04/19 12:10:35;;;;;;;;;;;;;;;19.50;70.79;100377.97;7395141;19;1867;-52
2023/04/19 12:13:17;;;;;;;;;;;;;;;19.84;69.89;100392.53;7397029;19;1252;-51
2023/04/19 12:15:47;;;;;;;;;;;;;;;19.76;70.22;100389.75;7395693;19;1225;-51
2023/04/19 12:18:16;;;;;;;;;;;;;;;19.59;70.21;100387.81;7395492;19;1132;-54
2023/04/19 12:20:46;;;;;;;;;;;;;;;19.59;69.12;100371.72;7395626;19;1270;-54
2023/04/19 12:23:17;;;;;;;;;;;;;;;19.60;69.01;100374.28;7396332;19;1185;-54
2023/04/19 12:25:46;;;;;;;;;;;;;;;19.58;68.39;100370.91;7393354;19;1269;-54
2023/04/19 12:28:15;;;;;;;;;;;;;;;19.57;68.32;100365.66;7392568;19;1516;-54
2023/04/19 12:30:43;;;;;;;;;;;;;;;19.37;69.48;100352.34;7393018;19;1857;-54
2023/04/19 12:33:11;;;;;;;;;;;;;;;19.56;68.87;100362.16;7392349;19;1182;-54
2023/04/19 12:35:40;;;;;;;;;;;;;;;19.74;68.40;100351.50;7393499;19;1249;-54
2023/04/19 12:38:08;;;;;;;;;;;;;;;19.62;68.95;100331.22;7395658;19;1211;-53
2023/04/19 12:40:39;;;;;;;;;;;;;;;19.44;69.52;100348.09;7396301;19;1215;-54
2023/04/19 12:43:08;;;;;;;;;;;;;;;19.43;69.46;100341.03;7395322;19;1234;-54
2023/04/19 12:45:36;;;;;;;;;;;;;;;19.44;69.26;100348.09;7394663;19;1256;-54
2023/04/19 12:48:05;;;;;;;;;;;;;;;19.35;69.87;100348.97;7395613;19;1222;-54
2023/04/19 12:50:34;;;;;;;;;;;;;;;19.55;69.06;100332.78;7393638;19;1845;-54
2023/04/19 12:53:02;;;;;;;;;;;;;;;19.81;68.26;100332.94;7395424;19;1154;-54
2023/04/19 12:55:31;;;;;;;;;;;;;;;19.70;68.63;100336.66;7393384;19;1213;-54
2023/04/19 12:58:01;;;;;;;;;;;;;;;19.55;69.31;100335.47;7393159;19;1304;-54